Lake Grove, New York
Current Conditions -  °F | °C
As of 12:56 AM on Tuesday 21 Oct 2014 (Local Time) from KISP Reporting Station
Clear Clear  
Wind Chill: 58°   Ceiling: Unl
Heat Index: 58°   Visibility: 10mi
Dew Point: 46°   Wind: 8mph
Humidity: 65%   Direction: 220°SW
Pressure: 29.96"   Gusts: NA
Location:  40.85°N, 73.11°W
Report Text: KISP 210456Z AUTO 22007KT 10SM CLR 14/08 A2996 RMK AO2 SLP144 T01440078 401500017
Loading
Personal Weather Stations






























Interactive Weather Map
Tropical Storm Tracking
New forecast layout! Learn more

10-Day Weather Forecast

Advertisements
Track Severe Weather on mobile